Terminal Aerodrome Forecast
Issued by NWS Brownsville, TX

Home | Current Version | Previous Version | Text Only | Print | Product List | Glossary On
Versions: 1 2 3 4 5 6 7 8 9 10 11 12 13 14 15 16 17 18
000
FTUS44 KBRO 270500
TAFHRL
TAF
KHRL 270520Z 2706/2806 06003KT P6SM SKC
      TEMPO 2710/2714 BKN025
     FM271500 03008KT P6SM VCSH SCT030 BKN040
     FM271900 05011G17KT P6SM VCSH SCT030 BKN040
     FM280200 05008KT P6SM BKN025=

USA.gov is the U.S. government's official web portal to all federal, state and local government web resources and services.